• Join FlightAware (Why Join?)
  • Login
  • US Flag 
09:15PM EDT


 

Airport Tracker/Info


-or-


 

Live Flight TrackerFlight Track Log ✈ N618JB ✈ 22-Apr-2013 ✈ KRSW - KBOS

Flight Track Log - Related Links

Times and Time Zones

All times are in EDT time to prevent confusion due to time zone crossing. See the N618JB flight status page for this flight to view local times or setup timezone preferences in your user account.

Time Position Orientation Groundspeed Altitude Reporting Facility
EDT Latitude Longitude Course Direction KTS MPH feet Rate Location/Type
10:31AM 26.6403 -81.7253 344° North 263 303 3,200  Level Miami Center
10:32AM 26.7111 -81.7306 356° North 289 333 6,800 3,480 Climbing Miami Center
10:33AM 27.0537 -81.7482 340° North  Level FlightAware Approximate
10:33AM 26.7903 -81.7361 356° North 289 333 10,200  Level Miami Center
10:34AM 27.1785 -81.7928 343° North  Level FlightAware Approximate
10:34AM 26.8800 -81.7400 358° North 297 342 11,400  Level Miami Center
10:35AM 27.3032 -81.8379 340° North  Level FlightAware Approximate
10:35AM 26.9883 -81.7444 358° North 331 381 13,100  Level Miami Center
10:36AM 27.4283 -81.8817 344° North  Level FlightAware Approximate
10:36AM 27.0919 -81.7675 349° North 366 421 16,300  Level Miami Center
10:37AM 27.5539 -81.9235 344° North  Level FlightAware Approximate
10:37AM 27.1847 -81.7972 344° North 373 429 18,500  Level Miami Center
10:38AM 27.2903 -81.8297 345° North 383 441 20,600 1,800 Climbing Miami Center
10:39AM 27.4056 -81.8719 342° North 388 447 22,200 1,500 Climbing Miami Center
10:40AM 27.5169 -81.9097 343° North 400 460 23,700 1,380 Climbing Miami Center
10:41AM 27.6347 -81.8844 11° North 428 493 25,000 1,260 Climbing Miami Center
10:42AM 27.7392 -81.8186 29° Northeast 443 510 26,300 1,200 Climbing Miami Center
10:43AM 27.8669 -81.7444 27° Northeast 458 527 27,500 1,200 Climbing Miami Center
10:44AM 27.9883 -81.6744 27° Northeast 463 533 28,700 1,200 Climbing Miami Center
10:45AM 28.1200 -81.6636 North 461 531 30,000 1,500 Climbing Miami Center
10:46AM 28.2497 -81.6550 North 461 531 31,800 1,380 Climbing Miami Center
10:47AM 28.3794 -81.6464 North 466 536 32,800 1,080 Climbing Miami Center
10:48AM 28.5089 -81.6400 North 466 536 34,000 1,080 Climbing Miami Center
10:48AM 28.5342 -81.6378 North 480 552 34,200 720 Climbing Jacksonville Center
10:49AM 28.6633 -81.6292 North 486 559 35,000 360 Climbing Jacksonville Center
10:50AM 28.7925 -81.6181 North 476 548 35,000  Level Jacksonville Center
10:51AM 28.9242 -81.6117 North 471 542 35,000  Level Jacksonville Center
10:52AM 29.0533 -81.6003 North 471 542 35,000  Level Jacksonville Center
10:53AM 29.1806 -81.5917 North 465 535 35,000  Level Jacksonville Center
10:54AM 29.3100 -81.5875 North 459 528 35,000  Level Jacksonville Center
10:55AM 29.4414 -81.5761 North 459 528 35,000  Level Jacksonville Center
10:56AM 29.5706 -81.5672 North 459 528 35,000  Level Jacksonville Center
10:57AM 29.7147 -81.5558 North 466 536 35,000  Level Jacksonville Center
10:58AM 29.8439 -81.5469 North 466 536 35,000  Level Jacksonville Center
10:59AM 29.9711 -81.5356 North 461 531 35,000  Level Jacksonville Center
11:00AM 30.1047 -81.5264 North 461 531 35,000  Level Jacksonville Center
11:01AM 30.2342 -81.5172 North 461 531 35,000  Level Jacksonville Center
11:02AM 30.3656 -81.5083 North 461 531 35,000  Level Jacksonville Center
11:03AM 30.4989 -81.4967 North 461 531 35,000  Level Jacksonville Center
11:04AM 30.6283 -81.4875 North 461 531 35,000  Level Jacksonville Center
11:05AM 30.7578 -81.4758 North 461 531 35,000  Level Jacksonville Center
11:06AM 30.8911 -81.4692 North 466 536 35,000  Level Jacksonville Center
11:07AM 31.0247 -81.4575 North 472 543 35,000  Level Jacksonville Center
11:08AM 31.1561 -81.4433 North 472 543 35,000  Level Jacksonville Center
11:09AM 31.2875 -81.4292 North 477 549 35,000  Level Jacksonville Center
11:10AM 31.4164 -81.3931 13° North 482 555 35,000  Level Jacksonville Center
11:11AM 31.5475 -81.3592 12° North 476 548 35,000  Level Jacksonville Center
11:12AM 31.6808 -81.3253 12° North 481 554 35,000  Level Jacksonville Center
11:13AM 31.8119 -81.2889 13° North 481 554 35,000  Level Jacksonville Center
11:14AM 31.9306 -81.2572 13° North 487 560 35,000  Level Jacksonville Center
11:15AM 32.0636 -81.2206 13° North 487 560 35,000  Level Jacksonville Center
11:16AM 32.1814 -81.1350 32° Northeast 487 560 35,000  Level Jacksonville Center
11:17AM 32.2989 -81.0197 40° Northeast 489 563 35,000  Level Jacksonville Center
11:18AM 32.4058 -80.9142 40° Northeast 494 568 35,000  Level Jacksonville Center
11:19AM 32.5003 -80.8186 40° Northeast 494 568 35,000  Level Jacksonville Center
11:20AM 32.6069 -80.7125 40° Northeast 494 568 35,000  Level Jacksonville Center
11:21AM 32.7139 -80.6086 39° Northeast 494 568 35,000  Level Jacksonville Center
11:22AM 32.8203 -80.5022 40° Northeast 494 568 35,000  Level Jacksonville Center
11:23AM 32.9269 -80.3981 39° Northeast 494 568 35,000  Level Jacksonville Center
11:24AM 33.0436 -80.2856 39° Northeast 505 581 35,000  Level Jacksonville Center
11:25AM 33.1558 -80.1658 42° Northeast 504 580 35,000  Level Jacksonville Center
11:26AM 33.2661 -80.0581 39° Northeast 498 573 35,000  Level Jacksonville Center
11:27AM 33.3722 -79.9503 40° Northeast 498 573 35,000  Level Jacksonville Center
11:28AM 33.4803 -79.8397 40° Northeast 498 573 35,000  Level Jacksonville Center
11:29AM 33.5861 -79.7286 41° Northeast 498 573 35,000  Level Jacksonville Center
11:30AM 33.6939 -79.6200 40° Northeast 498 573 35,000  Level Jacksonville Center
11:31AM 33.8014 -79.5086 42° Northeast 498 573 35,000  Level Jacksonville Center
11:32AM 33.7952 -79.5112 42° Northeast  Level FlightAware Approximate
11:33AM 33.9994 -79.3014 41° Northeast 482 555 35,000  Level Washington Center
11:34AM 34.1114 -79.1911 39° Northeast 493 567 35,000  Level Washington Center
11:35AM 34.2192 -79.0778 41° Northeast 503 579 35,000  Level Washington Center
11:36AM 34.3433 -78.9647 37° Northeast 509 586 35,000  Level Washington Center
11:37AM 34.4692 -78.8717 31° Northeast 515 593 35,000  Level Washington Center
11:38AM 34.5839 -78.7881 31° Northeast 526 605 35,000  Level Washington Center
11:39AM 34.7075 -78.6894 33° Northeast 526 605 35,000  Level Washington Center
11:40AM 34.8267 -78.5978 32° Northeast 526 605 35,000  Level Washington Center
11:41AM 34.9500 -78.5036 32° Northeast 526 605 35,000  Level Washington Center
11:42AM 35.0756 -78.4067 32° Northeast 526 605 35,000  Level Washington Center
11:43AM 35.1967 -78.3117 33° Northeast 526 605 35,000  Level Washington Center
11:44AM 35.3242 -78.2142 32° Northeast 526 605 35,000  Level Washington Center
11:45AM 35.4492 -78.1161 33° Northeast 531 611 35,000  Level Washington Center
11:46AM 35.5722 -78.0206 32° Northeast 531 611 35,000  Level Washington Center
11:47AM 35.6994 -77.9247 31° Northeast 526 605 35,000  Level Washington Center
11:48AM 35.8222 -77.8258 33° Northeast 526 605 35,000  Level Washington Center
11:49AM 35.9472 -77.7292 32° Northeast 526 605 35,000  Level Washington Center
11:50AM 36.0658 -77.6244 36° Northeast 526 605 35,000  Level Washington Center
11:51AM 36.1825 -77.5142 37° Northeast 526 605 35,000  Level Washington Center
11:52AM 36.3117 -77.3911 37° Northeast 521 600 35,000  Level Washington Center
11:53AM 36.4281 -77.2803 37° Northeast 526 605 35,000  Level Washington Center
11:54AM 36.5231 -77.1919 37° Northeast 526 605 35,000  Level Washington Center
11:55AM 36.6397 -77.0286 48° Northeast 520 598 35,000  Level Washington Center
11:56AM 36.7125 -76.8719 60° Northeast 520 598 35,000  Level Washington Center
11:57AM 36.8097 -76.7567 43° Northeast 525 604 35,000  Level Washington Center
11:58AM 36.9358 -76.6597 32° Northeast 530 610 35,000  Level Washington Center
11:59AM 37.0639 -76.5653 30° Northeast 530 610 35,000  Level Washington Center
12:00PM 37.1917 -76.4706 31° Northeast 530 610 35,000  Level Washington Center
12:01PM 37.3217 -76.3753 30° Northeast 530 610 35,000  Level Washington Center
12:02PM 37.4517 -76.2797 30° Northeast 536 617 35,000  Level Washington Center
12:03PM 37.5814 -76.1814 31° Northeast 536 617 35,000  Level Washington Center
12:04PM 37.7239 -76.0775 30° Northeast 530 610 35,000  Level Washington Center
12:05PM 37.8389 -75.9861 32° Northeast 535 616 35,000  Level Washington Center
12:06PM 37.9850 -75.8736 31° Northeast 549 632 35,000  Level Washington Center
12:07PM 38.1125 -75.7764 31° Northeast 549 632 35,000  Level Washington Center
12:08PM 38.2439 -75.6789 30° Northeast 544 626 35,000  Level Washington Center
12:09PM 38.3650 -75.5892 30° Northeast 544 626 35,000  Level Washington Center
12:10PM 38.4922 -75.4936 30° Northeast 539 620 35,000  Level Washington Center
12:11PM 38.6233 -75.3925 31° Northeast 539 620 35,000  Level Washington Center
12:12PM 38.7544 -75.2881 32° Northeast 539 620 35,000  Level Washington Center
12:13PM 38.8833 -75.1917 30° Northeast 539 620 35,000  Level Washington Center
12:14PM 39.0144 -75.0842 32° Northeast 539 620 35,000  Level Washington Center
12:15PM 39.1450 -74.9786 32° Northeast 539 620 35,000  Level Washington Center
12:16PM 39.2758 -74.8758 31° Northeast 545 627 35,000 -60 Level Washington Center
12:17PM 39.4064 -74.7722 32° Northeast 545 627 34,900  Descending Washington Center
12:19PM 39.6456 -74.5803 32° Northeast 569 655 35,000  Climbing New York Center
12:20PM 39.7761 -74.4739 32° Northeast 558 642 35,000  Level New York Center
12:21PM 39.8981 -74.3778 31° Northeast 558 642 35,000  Level New York Center
12:22PM 40.0264 -74.2706 33° Northeast 553 636 35,000 -60 Level New York Center
12:23PM 40.1628 -74.1606 32° Northeast 558 642 34,900 -1,080 Descending New York Center
12:24PM 40.2953 -74.0528 32° Northeast 558 642 32,900 -1,920 Descending New York Center
12:25PM 40.4253 -73.9444 32° Northeast 558 642 31,100 -1,860 Descending New York Center
12:27PM 40.6339 -73.7583 34° Northeast 545 627 28,200 -1,740 Descending Boston Center
12:28PM 40.7247 -73.6369 45° Northeast 523 602 26,700 -1,680 Descending Boston Center
12:29PM 40.8158 -73.4986 49° Northeast 504 580 24,900 -1,380 Descending Boston Center
12:30PM 40.9022 -73.3711 48° Northeast 483 556 24,000 -1,200 Descending Boston Center
12:31PM 40.9908 -73.2486 46° Northeast 434 499 22,600 -1,440 Descending Boston Center
12:32PM 41.0561 -73.1256 55° Northeast 419 482 21,200 -840 Descending Boston Center
12:33PM 41.1092 -72.9856 63° Northeast 413 475 21,000 -120 Descending Boston Center
12:34PM 41.1658 -72.8428 62° Northeast 419 482 21,000  Level Boston Center
12:35PM 41.2247 -72.7022 61° Northeast 430 495 21,000  Level Boston Center
12:36PM 41.2769 -72.5728 62° Northeast 430 495 21,000  Level Boston Center
12:37PM 41.3333 -72.4289 62° Northeast 436 502 21,000  Level Boston Center
12:38PM 41.3917 -72.2853 62° Northeast 431 496 21,000 -480 Level Boston Center
12:39PM 41.4497 -72.1328 63° Northeast 420 483 20,100 -1,560 Descending Boston Center
12:40PM 41.5075 -71.9967 60° Northeast 413 475 17,900 -1,860 Descending Boston Center
12:41PM 41.5528 -71.8769 63° Northeast 403 464 16,400 -1,680 Descending Boston Center
12:42PM 41.6064 -71.7378 63° Northeast 389 448 14,600 -1,800 Descending Boston Center
12:43PM 41.6492 -71.6289 62° Northeast 374 430 12,900 -1,620 Descending Boston Center
12:44PM 41.6942 -71.5058 64° Northeast 342 394 11,400 -1,020 Descending Boston Center
12:45PM 41.7350 -71.4108 60° Northeast 302 348 10,900 -240 Descending Boston Center
12:46PM 41.7947 -71.3375 42° Northeast 290 334 11,000  Climbing Boston Center
12:47PM 41.8567 -71.2667 40° Northeast 285 328 11,000 -480 Level Boston Center
12:48PM 41.9289 -71.2122 29° Northeast 285 328 10,100 -1,200 Descending Boston Center
12:49PM 42.0036 -71.1800 18° North 279 321 8,600 -1,680 Descending Boston Center
12:50PM 42.0761 -71.1422 21° North 279 321 6,800 -2,040 Descending Boston Center
12:51PM 42.1500 -71.1167 14° North 271 312 4,800 -1,980 Descending KA90
12:52PM 42.2000 -71.0833 26° Northeast 248 285 3,100 -1,320 Descending KA90
12:53PM 42.2667 -71.0500 20° North 195 224 2,200 -900 Descending KA90
12:54PM 42.3000 -71.0333 20° North 139 160 1,300 -840 Descending KA90
12:55PM 42.3333 -71.0167 20° North 124 143 600 6,300 Descending KA90
12:57PM 42.4264 -70.9692 21° North 157 181 21,000 9,660 Climbing Boston Center